sensor_id;sensor_type;location;lat;lon;timestamp;P1;durP1;ratioP1;P2;durP2;ratioP2
69256;SDS011;56376;53.356;-1.748;2023-04-29T00:01:03;18.45;;;12.18;;
69256;SDS011;56376;53.356;-1.748;2023-04-29T00:03:29;16.00;;;11.20;;
69256;SDS011;56376;53.356;-1.748;2023-04-29T00:05:56;18.47;;;11.50;;
69256;SDS011;56376;53.356;-1.748;2023-04-29T00:08:22;16.13;;;11.60;;
69256;SDS011;56376;53.356;-1.748;2023-04-29T00:10:48;15.20;;;10.53;;
69256;SDS011;56376;53.356;-1.748;2023-04-29T00:13:14;12.47;;;9.13;;
69256;SDS011;56376;53.356;-1.748;2023-04-29T00:15:40;9.97;;;7.83;;
69256;SDS011;56376;53.356;-1.748;2023-04-29T00:18:05;7.37;;;6.60;;
69256;SDS011;56376;53.356;-1.748;2023-04-29T00:20:30;8.53;;;7.47;;
69256;SDS011;56376;53.356;-1.748;2023-04-29T00:22:56;7.00;;;6.33;;
69256;SDS011;56376;53.356;-1.748;2023-04-29T00:25:22;6.67;;;5.90;;
69256;SDS011;56376;53.356;-1.748;2023-04-29T00:27:47;6.63;;;5.93;;
69256;SDS011;56376;53.356;-1.748;2023-04-29T00:30:13;6.50;;;5.90;;
69256;SDS011;56376;53.356;-1.748;2023-04-29T00:32:38;6.20;;;5.60;;
69256;SDS011;56376;53.356;-1.748;2023-04-29T00:35:04;7.47;;;6.67;;
69256;SDS011;56376;53.356;-1.748;2023-04-29T00:37:30;6.53;;;5.83;;
69256;SDS011;56376;53.356;-1.748;2023-04-29T00:39:56;7.20;;;5.97;;
69256;SDS011;56376;53.356;-1.748;2023-04-29T00:42:21;8.53;;;6.40;;
69256;SDS011;56376;53.356;-1.748;2023-04-29T00:44:46;8.17;;;6.30;;
69256;SDS011;56376;53.356;-1.748;2023-04-29T00:47:12;6.67;;;5.50;;
69256;SDS011;56376;53.356;-1.748;2023-04-29T00:49:38;6.47;;;5.43;;
69256;SDS011;56376;53.356;-1.748;2023-04-29T00:52:03;5.97;;;5.30;;
69256;SDS011;56376;53.356;-1.748;2023-04-29T00:54:31;7.33;;;5.70;;
69256;SDS011;56376;53.356;-1.748;2023-04-29T00:56:57;6.63;;;5.73;;
69256;SDS011;56376;53.356;-1.748;2023-04-29T00:59:25;6.20;;;5.50;;
69256;SDS011;56376;53.356;-1.748;2023-04-29T01:01:56;6.20;;;5.27;;
69256;SDS011;56376;53.356;-1.748;2023-04-29T01:04:26;5.90;;;5.27;;
69256;SDS011;56376;53.356;-1.748;2023-04-29T01:15:03;6.33;;;5.80;;
69256;SDS011;56376;53.356;-1.748;2023-04-29T01:17:30;6.93;;;5.47;;
69256;SDS011;56376;53.356;-1.748;2023-04-29T01:20:03;7.38;;;6.43;;
69256;SDS011;56376;53.356;-1.748;2023-04-29T01:22:29;8.47;;;6.40;;
69256;SDS011;56376;53.356;-1.748;2023-04-29T01:24:54;7.73;;;6.37;;
69256;SDS011;56376;53.356;-1.748;2023-04-29T01:27:27;7.73;;;6.10;;
69256;SDS011;56376;53.356;-1.748;2023-04-29T01:33:05;6.90;;;6.17;;
69256;SDS011;56376;53.356;-1.748;2023-04-29T01:38:30;9.25;;;7.45;;
69256;SDS011;56376;53.356;-1.748;2023-04-29T01:41:14;11.33;;;7.60;;
69256;SDS011;56376;53.356;-1.748;2023-04-29T01:43:42;10.03;;;7.43;;
69256;SDS011;56376;53.356;-1.748;2023-04-29T01:46:12;7.27;;;5.60;;
69256;SDS011;56376;53.356;-1.748;2023-04-29T01:48:41;6.20;;;5.60;;
69256;SDS011;56376;53.356;-1.748;2023-04-29T01:51:07;6.63;;;5.60;;
69256;SDS011;56376;53.356;-1.748;2023-04-29T01:53:33;6.00;;;5.30;;
69256;SDS011;56376;53.356;-1.748;2023-04-29T01:55:58;5.40;;;4.87;;
69256;SDS011;56376;53.356;-1.748;2023-04-29T01:58:23;5.50;;;4.70;;
69256;SDS011;56376;53.356;-1.748;2023-04-29T02:00:49;5.10;;;4.60;;
69256;SDS011;56376;53.356;-1.748;2023-04-29T02:03:14;5.47;;;4.50;;
69256;SDS011;56376;53.356;-1.748;2023-04-29T02:05:41;5.57;;;5.07;;
69256;SDS011;56376;53.356;-1.748;2023-04-29T02:08:07;5.70;;;5.10;;
69256;SDS011;56376;53.356;-1.748;2023-04-29T02:10:32;5.00;;;4.50;;
69256;SDS011;56376;53.356;-1.748;2023-04-29T02:12:58;6.50;;;5.90;;
69256;SDS011;56376;53.356;-1.748;2023-04-29T02:15:26;6.10;;;5.20;;
69256;SDS011;56376;53.356;-1.748;2023-04-29T02:17:52;6.43;;;5.90;;
69256;SDS011;56376;53.356;-1.748;2023-04-29T02:20:18;6.23;;;5.63;;
69256;SDS011;56376;53.356;-1.748;2023-04-29T02:22:44;5.93;;;5.43;;
69256;SDS011;56376;53.356;-1.748;2023-04-29T02:25:10;6.73;;;6.13;;
69256;SDS011;56376;53.356;-1.748;2023-04-29T02:27:36;7.80;;;7.00;;
69256;SDS011;56376;53.356;-1.748;2023-04-29T02:30:01;6.50;;;5.90;;
69256;SDS011;56376;53.356;-1.748;2023-04-29T02:32:28;6.40;;;5.80;;
69256;SDS011;56376;53.356;-1.748;2023-04-29T02:34:54;6.97;;;6.27;;
69256;SDS011;56376;53.356;-1.748;2023-04-29T02:37:19;7.10;;;6.40;;
69256;SDS011;56376;53.356;-1.748;2023-04-29T02:39:45;6.90;;;6.20;;
69256;SDS011;56376;53.356;-1.748;2023-04-29T02:42:11;6.53;;;5.83;;
69256;SDS011;56376;53.356;-1.748;2023-04-29T02:44:36;6.73;;;6.13;;
69256;SDS011;56376;53.356;-1.748;2023-04-29T02:47:01;6.57;;;5.87;;
69256;SDS011;56376;53.356;-1.748;2023-04-29T02:49:27;6.40;;;5.83;;
69256;SDS011;56376;53.356;-1.748;2023-04-29T02:51:52;7.17;;;6.47;;
69256;SDS011;56376;53.356;-1.748;2023-04-29T02:54:18;6.73;;;6.03;;
69256;SDS011;56376;53.356;-1.748;2023-04-29T02:56:43;6.47;;;5.87;;
69256;SDS011;56376;53.356;-1.748;2023-04-29T02:59:09;8.03;;;7.23;;
69256;SDS011;56376;53.356;-1.748;2023-04-29T03:01:34;6.73;;;6.03;;
69256;SDS011;56376;53.356;-1.748;2023-04-29T03:04:00;6.00;;;5.50;;
69256;SDS011;56376;53.356;-1.748;2023-04-29T03:06:25;6.27;;;5.67;;
69256;SDS011;56376;53.356;-1.748;2023-04-29T03:08:52;7.17;;;6.47;;
69256;SDS011;56376;53.356;-1.748;2023-04-29T03:11:17;6.90;;;6.20;;
69256;SDS011;56376;53.356;-1.748;2023-04-29T03:13:43;6.63;;;6.03;;
69256;SDS011;56376;53.356;-1.748;2023-04-29T03:16:10;7.53;;;6.43;;
69256;SDS011;56376;53.356;-1.748;2023-04-29T03:18:37;6.50;;;5.90;;
69256;SDS011;56376;53.356;-1.748;2023-04-29T03:21:03;6.80;;;6.10;;
69256;SDS011;56376;53.356;-1.748;2023-04-29T03:23:28;7.13;;;6.43;;
69256;SDS011;56376;53.356;-1.748;2023-04-29T03:25:54;6.87;;;6.17;;
69256;SDS011;56376;53.356;-1.748;2023-04-29T03:28:19;7.33;;;6.63;;
69256;SDS011;56376;53.356;-1.748;2023-04-29T03:30:45;7.07;;;6.47;;
69256;SDS011;56376;53.356;-1.748;2023-04-29T03:33:10;6.70;;;6.10;;
69256;SDS011;56376;53.356;-1.748;2023-04-29T03:35:35;6.93;;;6.33;;
69256;SDS011;56376;53.356;-1.748;2023-04-29T03:38:01;6.73;;;6.13;;
69256;SDS011;56376;53.356;-1.748;2023-04-29T03:40:26;7.37;;;6.67;;
69256;SDS011;56376;53.356;-1.748;2023-04-29T03:42:52;7.10;;;6.40;;
69256;SDS011;56376;53.356;-1.748;2023-04-29T03:45:17;6.43;;;5.83;;
69256;SDS011;56376;53.356;-1.748;2023-04-29T03:47:42;6.37;;;5.77;;
69256;SDS011;56376;53.356;-1.748;2023-04-29T03:50:08;6.83;;;6.23;;
69256;SDS011;56376;53.356;-1.748;2023-04-29T03:52:33;6.53;;;5.87;;
69256;SDS011;56376;53.356;-1.748;2023-04-29T03:55:00;6.30;;;5.70;;
69256;SDS011;56376;53.356;-1.748;2023-04-29T03:57:26;6.20;;;5.63;;
69256;SDS011;56376;53.356;-1.748;2023-04-29T03:59:52;6.47;;;5.97;;
69256;SDS011;56376;53.356;-1.748;2023-04-29T04:02:17;5.93;;;5.43;;
69256;SDS011;56376;53.356;-1.748;2023-04-29T04:04:43;6.67;;;6.07;;
69256;SDS011;56376;53.356;-1.748;2023-04-29T04:07:08;7.03;;;6.33;;
69256;SDS011;56376;53.356;-1.748;2023-04-29T04:09:35;6.80;;;6.10;;
69256;SDS011;56376;53.356;-1.748;2023-04-29T04:12:01;7.53;;;6.73;;
69256;SDS011;56376;53.356;-1.748;2023-04-29T04:14:27;7.20;;;6.50;;
69256;SDS011;56376;53.356;-1.748;2023-04-29T04:16:52;6.40;;;5.80;;
69256;SDS011;56376;53.356;-1.748;2023-04-29T04:19:18;7.37;;;6.67;;
69256;SDS011;56376;53.356;-1.748;2023-04-29T04:21:44;7.33;;;6.63;;
69256;SDS011;56376;53.356;-1.748;2023-04-29T04:24:09;7.80;;;7.07;;
69256;SDS011;56376;53.356;-1.748;2023-04-29T04:26:35;8.90;;;7.53;;
69256;SDS011;56376;53.356;-1.748;2023-04-29T04:29:00;8.17;;;7.37;;
69256;SDS011;56376;53.356;-1.748;2023-04-29T04:31:26;7.33;;;6.63;;
69256;SDS011;56376;53.356;-1.748;2023-04-29T04:33:51;7.73;;;6.97;;
69256;SDS011;56376;53.356;-1.748;2023-04-29T04:36:17;8.03;;;6.33;;
69256;SDS011;56376;53.356;-1.748;2023-04-29T04:38:42;7.33;;;6.63;;
69256;SDS011;56376;53.356;-1.748;2023-04-29T04:41:08;8.03;;;7.17;;
69256;SDS011;56376;53.356;-1.748;2023-04-29T04:43:33;7.57;;;6.87;;
69256;SDS011;56376;53.356;-1.748;2023-04-29T04:45:58;7.83;;;7.00;;
69256;SDS011;56376;53.356;-1.748;2023-04-29T04:48:24;8.70;;;7.77;;
69256;SDS011;56376;53.356;-1.748;2023-04-29T04:50:49;8.50;;;7.67;;
69256;SDS011;56376;53.356;-1.748;2023-04-29T04:53:15;7.93;;;7.23;;
69256;SDS011;56376;53.356;-1.748;2023-04-29T04:55:41;7.97;;;7.17;;
69256;SDS011;56376;53.356;-1.748;2023-04-29T04:58:06;7.87;;;6.93;;
69256;SDS011;56376;53.356;-1.748;2023-04-29T05:00:32;8.17;;;7.37;;
69256;SDS011;56376;53.356;-1.748;2023-04-29T05:02:57;8.03;;;7.23;;
69256;SDS011;56376;53.356;-1.748;2023-04-29T05:05:22;8.03;;;7.27;;
69256;SDS011;56376;53.356;-1.748;2023-04-29T05:07:48;8.70;;;7.70;;
69256;SDS011;56376;53.356;-1.748;2023-04-29T05:10:13;9.00;;;8.10;;
69256;SDS011;56376;53.356;-1.748;2023-04-29T05:12:39;8.43;;;7.63;;
69256;SDS011;56376;53.356;-1.748;2023-04-29T05:15:04;9.07;;;7.93;;
69256;SDS011;56376;53.356;-1.748;2023-04-29T05:17:30;8.73;;;7.83;;
69256;SDS011;56376;53.356;-1.748;2023-04-29T05:19:55;7.50;;;6.80;;
69256;SDS011;56376;53.356;-1.748;2023-04-29T05:22:21;7.90;;;7.10;;
69256;SDS011;56376;53.356;-1.748;2023-04-29T05:24:46;9.27;;;8.27;;
69256;SDS011;56376;53.356;-1.748;2023-04-29T05:27:16;11.07;;;9.97;;
69256;SDS011;56376;53.356;-1.748;2023-04-29T05:29:42;10.20;;;9.20;;
69256;SDS011;56376;53.356;-1.748;2023-04-29T05:32:08;10.63;;;9.50;;
69256;SDS011;56376;53.356;-1.748;2023-04-29T05:34:33;10.67;;;9.63;;
69256;SDS011;56376;53.356;-1.748;2023-04-29T05:36:59;9.77;;;8.77;;
69256;SDS011;56376;53.356;-1.748;2023-04-29T05:39:24;8.43;;;7.47;;
69256;SDS011;56376;53.356;-1.748;2023-04-29T05:41:50;9.00;;;8.10;;
69256;SDS011;56376;53.356;-1.748;2023-04-29T05:44:16;8.80;;;7.90;;
69256;SDS011;56376;53.356;-1.748;2023-04-29T05:46:41;8.57;;;7.77;;
69256;SDS011;56376;53.356;-1.748;2023-04-29T05:49:07;10.93;;;9.83;;
69256;SDS011;56376;53.356;-1.748;2023-04-29T05:51:32;9.40;;;8.23;;
69256;SDS011;56376;53.356;-1.748;2023-04-29T05:53:58;9.93;;;8.93;;
69256;SDS011;56376;53.356;-1.748;2023-04-29T05:56:24;10.60;;;9.50;;
69256;SDS011;56376;53.356;-1.748;2023-04-29T05:58:49;12.27;;;11.07;;
69256;SDS011;56376;53.356;-1.748;2023-04-29T06:01:15;13.23;;;11.80;;
69256;SDS011;56376;53.356;-1.748;2023-04-29T06:03:41;11.43;;;10.30;;
69256;SDS011;56376;53.356;-1.748;2023-04-29T06:06:07;11.57;;;10.37;;
69256;SDS011;56376;53.356;-1.748;2023-04-29T06:08:32;13.23;;;11.83;;
69256;SDS011;56376;53.356;-1.748;2023-04-29T06:10:58;14.27;;;12.00;;
69256;SDS011;56376;53.356;-1.748;2023-04-29T06:13:23;13.33;;;11.93;;
69256;SDS011;56376;53.356;-1.748;2023-04-29T06:15:49;13.57;;;12.17;;
69256;SDS011;56376;53.356;-1.748;2023-04-29T06:18:14;14.00;;;11.80;;
69256;SDS011;56376;53.356;-1.748;2023-04-29T06:20:39;11.97;;;10.80;;
69256;SDS011;56376;53.356;-1.748;2023-04-29T06:23:05;12.37;;;11.17;;
69256;SDS011;56376;53.356;-1.748;2023-04-29T06:25:31;11.60;;;10.40;;
69256;SDS011;56376;53.356;-1.748;2023-04-29T06:27:57;13.70;;;11.10;;
69256;SDS011;56376;53.356;-1.748;2023-04-29T06:30:22;11.53;;;10.33;;
69256;SDS011;56376;53.356;-1.748;2023-04-29T06:32:47;13.50;;;12.10;;
69256;SDS011;56376;53.356;-1.748;2023-04-29T06:35:14;12.17;;;10.87;;
69256;SDS011;56376;53.356;-1.748;2023-04-29T06:37:39;11.87;;;10.73;;
69256;SDS011;56376;53.356;-1.748;2023-04-29T06:40:05;12.50;;;11.20;;
69256;SDS011;56376;53.356;-1.748;2023-04-29T06:42:31;13.13;;;11.73;;
69256;SDS011;56376;53.356;-1.748;2023-04-29T06:45:00;13.60;;;12.20;;
69256;SDS011;56376;53.356;-1.748;2023-04-29T06:47:26;13.50;;;12.07;;
69256;SDS011;56376;53.356;-1.748;2023-04-29T06:49:52;13.20;;;11.87;;
69256;SDS011;56376;53.356;-1.748;2023-04-29T06:52:17;13.20;;;11.87;;
69256;SDS011;56376;53.356;-1.748;2023-04-29T06:54:43;13.13;;;11.77;;
69256;SDS011;56376;53.356;-1.748;2023-04-29T06:57:08;12.90;;;11.60;;
69256;SDS011;56376;53.356;-1.748;2023-04-29T06:59:34;12.77;;;11.47;;
69256;SDS011;56376;53.356;-1.748;2023-04-29T07:01:59;11.85;;;10.65;;
69256;SDS011;56376;53.356;-1.748;2023-04-29T07:04:24;12.40;;;11.10;;
69256;SDS011;56376;53.356;-1.748;2023-04-29T07:06:50;12.33;;;11.03;;
69256;SDS011;56376;53.356;-1.748;2023-04-29T07:09:17;12.80;;;11.57;;
69256;SDS011;56376;53.356;-1.748;2023-04-29T07:11:43;13.13;;;11.83;;
69256;SDS011;56376;53.356;-1.748;2023-04-29T07:14:08;13.87;;;12.43;;
69256;SDS011;56376;53.356;-1.748;2023-04-29T07:16:34;15.70;;;14.07;;
69256;SDS011;56376;53.356;-1.748;2023-04-29T07:18:59;16.05;;;13.88;;
69256;SDS011;56376;53.356;-1.748;2023-04-29T07:21:24;14.77;;;13.23;;
69256;SDS011;56376;53.356;-1.748;2023-04-29T07:23:50;14.10;;;12.07;;
69256;SDS011;56376;53.356;-1.748;2023-04-29T07:26:16;13.47;;;12.07;;
69256;SDS011;56376;53.356;-1.748;2023-04-29T07:28:42;12.80;;;11.50;;
69256;SDS011;56376;53.356;-1.748;2023-04-29T07:31:08;11.93;;;10.73;;
69256;SDS011;56376;53.356;-1.748;2023-04-29T07:33:34;11.10;;;9.93;;
69256;SDS011;56376;53.356;-1.748;2023-04-29T07:36:00;12.40;;;11.10;;
69256;SDS011;56376;53.356;-1.748;2023-04-29T07:38:26;11.60;;;10.47;;
69256;SDS011;56376;53.356;-1.748;2023-04-29T07:40:51;13.30;;;11.97;;
69256;SDS011;56376;53.356;-1.748;2023-04-29T07:43:17;11.85;;;10.63;;
69256;SDS011;56376;53.356;-1.748;2023-04-29T07:45:43;12.48;;;11.18;;
69256;SDS011;56376;53.356;-1.748;2023-04-29T07:48:08;12.48;;;11.18;;
69256;SDS011;56376;53.356;-1.748;2023-04-29T07:50:34;11.93;;;10.67;;
69256;SDS011;56376;53.356;-1.748;2023-04-29T07:53:00;12.65;;;11.30;;
69256;SDS011;56376;53.356;-1.748;2023-04-29T07:55:26;11.63;;;10.52;;
69256;SDS011;56376;53.356;-1.748;2023-04-29T07:57:54;11.27;;;10.18;;
69256;SDS011;56376;53.356;-1.748;2023-04-29T08:00:20;12.30;;;11.00;;
69256;SDS011;56376;53.356;-1.748;2023-04-29T08:02:45;13.17;;;11.77;;
69256;SDS011;56376;53.356;-1.748;2023-04-29T08:05:11;12.75;;;11.45;;
69256;SDS011;56376;53.356;-1.748;2023-04-29T08:07:36;13.55;;;12.15;;
69256;SDS011;56376;53.356;-1.748;2023-04-29T08:10:02;13.80;;;12.30;;
69256;SDS011;56376;53.356;-1.748;2023-04-29T08:12:27;13.25;;;11.85;;
69256;SDS011;56376;53.356;-1.748;2023-04-29T08:14:53;12.63;;;11.18;;
69256;SDS011;56376;53.356;-1.748;2023-04-29T08:17:18;12.93;;;11.15;;
69256;SDS011;56376;53.356;-1.748;2023-04-29T08:19:43;12.00;;;10.48;;
69256;SDS011;56376;53.356;-1.748;2023-04-29T08:22:09;13.20;;;11.77;;
69256;SDS011;56376;53.356;-1.748;2023-04-29T08:24:36;16.00;;;12.40;;
69256;SDS011;56376;53.356;-1.748;2023-04-29T08:27:02;16.13;;;12.07;;
69256;SDS011;56376;53.356;-1.748;2023-04-29T08:29:29;11.55;;;10.35;;
69256;SDS011;56376;53.356;-1.748;2023-04-29T08:31:56;12.32;;;10.63;;
69256;SDS011;56376;53.356;-1.748;2023-04-29T08:34:22;12.45;;;10.48;;
69256;SDS011;56376;53.356;-1.748;2023-04-29T08:36:47;14.48;;;11.57;;
69256;SDS011;56376;53.356;-1.748;2023-04-29T08:39:13;13.98;;;11.80;;
69256;SDS011;56376;53.356;-1.748;2023-04-29T08:41:38;15.20;;;12.70;;
69256;SDS011;56376;53.356;-1.748;2023-04-29T08:44:04;14.27;;;12.00;;
69256;SDS011;56376;53.356;-1.748;2023-04-29T08:46:30;12.80;;;11.43;;
69256;SDS011;56376;53.356;-1.748;2023-04-29T08:48:56;14.43;;;12.23;;
69256;SDS011;56376;53.356;-1.748;2023-04-29T08:51:22;15.65;;;12.93;;
69256;SDS011;56376;53.356;-1.748;2023-04-29T08:53:48;14.80;;;11.18;;
69256;SDS011;56376;53.356;-1.748;2023-04-29T08:56:17;15.05;;;12.30;;
69256;SDS011;56376;53.356;-1.748;2023-04-29T08:58:45;15.10;;;12.30;;
69256;SDS011;56376;53.356;-1.748;2023-04-29T09:01:15;13.95;;;12.05;;
69256;SDS011;56376;53.356;-1.748;2023-04-29T09:03:43;14.20;;;12.07;;
69256;SDS011;56376;53.356;-1.748;2023-04-29T09:06:14;14.43;;;11.15;;
69256;SDS011;56376;53.356;-1.748;2023-04-29T09:08:40;17.10;;;11.43;;
69256;SDS011;56376;53.356;-1.748;2023-04-29T09:11:09;16.75;;;11.27;;
69256;SDS011;56376;53.356;-1.748;2023-04-29T09:13:36;12.77;;;10.60;;
69256;SDS011;56376;53.356;-1.748;2023-04-29T09:16:02;12.70;;;10.68;;
69256;SDS011;56376;53.356;-1.748;2023-04-29T09:18:44;12.38;;;10.13;;
69256;SDS011;56376;53.356;-1.748;2023-04-29T09:21:21;15.75;;;12.50;;
69256;SDS011;56376;53.356;-1.748;2023-04-29T09:23:52;12.73;;;10.95;;
69256;SDS011;56376;53.356;-1.748;2023-04-29T09:26:19;14.00;;;11.73;;
69256;SDS011;56376;53.356;-1.748;2023-04-29T09:28:45;14.50;;;11.52;;
69256;SDS011;56376;53.356;-1.748;2023-04-29T09:31:11;13.05;;;10.98;;
69256;SDS011;56376;53.356;-1.748;2023-04-29T09:33:53;12.07;;;10.80;;
69256;SDS011;56376;53.356;-1.748;2023-04-29T09:39:13;13.10;;;11.27;;
69256;SDS011;56376;53.356;-1.748;2023-04-29T09:44:17;7.78;;;6.85;;
69256;SDS011;56376;53.356;-1.748;2023-04-29T09:46:56;4.93;;;4.25;;
69256;SDS011;56376;53.356;-1.748;2023-04-29T09:49:29;3.25;;;2.95;;
69256;SDS011;56376;53.356;-1.748;2023-04-29T09:52:00;3.97;;;2.75;;
69256;SDS011;56376;53.356;-1.748;2023-04-29T09:54:28;3.33;;;2.65;;
69256;SDS011;56376;53.356;-1.748;2023-04-29T09:56:57;3.70;;;3.30;;
69256;SDS011;56376;53.356;-1.748;2023-04-29T09:59:23;4.43;;;3.88;;
69256;SDS011;56376;53.356;-1.748;2023-04-29T10:01:49;4.13;;;3.72;;
69256;SDS011;56376;53.356;-1.748;2023-04-29T10:04:17;3.38;;;3.08;;
69256;SDS011;56376;53.356;-1.748;2023-04-29T10:06:44;2.70;;;2.50;;
69256;SDS011;56376;53.356;-1.748;2023-04-29T10:09:13;2.88;;;2.50;;
69256;SDS011;56376;53.356;-1.748;2023-04-29T10:11:46;3.30;;;2.38;;
69256;SDS011;56376;53.356;-1.748;2023-04-29T10:14:20;1.92;;;1.73;;
69256;SDS011;56376;53.356;-1.748;2023-04-29T10:19:32;2.10;;;1.67;;
69256;SDS011;56376;53.356;-1.748;2023-04-29T10:21:59;1.38;;;1.17;;
69256;SDS011;56376;53.356;-1.748;2023-04-29T10:24:33;1.67;;;1.30;;
69256;SDS011;56376;53.356;-1.748;2023-04-29T10:27:01;1.45;;;1.35;;
69256;SDS011;56376;53.356;-1.748;2023-04-29T10:29:31;1.60;;;1.50;;
69256;SDS011;56376;53.356;-1.748;2023-04-29T10:31:59;1.65;;;1.55;;
69256;SDS011;56376;53.356;-1.748;2023-04-29T10:34:25;1.67;;;1.50;;
69256;SDS011;56376;53.356;-1.748;2023-04-29T10:36:52;1.20;;;1.10;;
69256;SDS011;56376;53.356;-1.748;2023-04-29T10:39:20;1.25;;;1.15;;
69256;SDS011;56376;53.356;-1.748;2023-04-29T10:41:54;1.30;;;1.20;;
69256;SDS011;56376;53.356;-1.748;2023-04-29T10:44:20;1.40;;;1.13;;
69256;SDS011;56376;53.356;-1.748;2023-04-29T10:46:48;1.25;;;1.15;;
69256;SDS011;56376;53.356;-1.748;2023-04-29T10:49:13;2.22;;;1.60;;
69256;SDS011;56376;53.356;-1.748;2023-04-29T10:51:40;1.30;;;1.20;;
69256;SDS011;56376;53.356;-1.748;2023-04-29T10:54:16;1.38;;;1.27;;
69256;SDS011;56376;53.356;-1.748;2023-04-29T10:56:48;1.60;;;1.50;;
69256;SDS011;56376;53.356;-1.748;2023-04-29T11:00:02;1.92;;;1.80;;
69256;SDS011;56376;53.356;-1.748;2023-04-29T11:02:00;1.90;;;1.70;;
69256;SDS011;56376;53.356;-1.748;2023-04-29T11:04:26;2.45;;;2.22;;
69256;SDS011;56376;53.356;-1.748;2023-04-29T11:06:53;2.97;;;2.33;;
69256;SDS011;56376;53.356;-1.748;2023-04-29T11:09:20;3.63;;;2.50;;
69256;SDS011;56376;53.356;-1.748;2023-04-29T11:11:56;2.28;;;2.08;;
69256;SDS011;56376;53.356;-1.748;2023-04-29T11:14:34;2.20;;;2.00;;
69256;SDS011;56376;53.356;-1.748;2023-04-29T11:19:34;2.50;;;2.30;;
69256;SDS011;56376;53.356;-1.748;2023-04-29T11:27:15;3.30;;;3.00;;
69256;SDS011;56376;53.356;-1.748;2023-04-29T11:29:41;3.63;;;2.90;;
69256;SDS011;56376;53.356;-1.748;2023-04-29T11:32:07;3.33;;;2.80;;
69256;SDS011;56376;53.356;-1.748;2023-04-29T11:34:32;3.97;;;3.30;;
69256;SDS011;56376;53.356;-1.748;2023-04-29T11:36:58;3.08;;;2.78;;
69256;SDS011;56376;53.356;-1.748;2023-04-29T11:39:24;2.65;;;2.45;;
69256;SDS011;56376;53.356;-1.748;2023-04-29T11:41:51;3.03;;;2.72;;
69256;SDS011;56376;53.356;-1.748;2023-04-29T11:44:20;3.35;;;2.97;;
69256;SDS011;56376;53.356;-1.748;2023-04-29T11:46:48;3.58;;;3.28;;
69256;SDS011;56376;53.356;-1.748;2023-04-29T11:49:14;4.03;;;3.63;;
69256;SDS011;56376;53.356;-1.748;2023-04-29T11:51:39;4.80;;;3.95;;
69256;SDS011;56376;53.356;-1.748;2023-04-29T11:54:05;5.30;;;3.97;;
69256;SDS011;56376;53.356;-1.748;2023-04-29T11:56:31;5.40;;;4.90;;
69256;SDS011;56376;53.356;-1.748;2023-04-29T11:58:56;5.85;;;5.20;;
69256;SDS011;56376;53.356;-1.748;2023-04-29T12:01:22;6.00;;;5.40;;
69256;SDS011;56376;53.356;-1.748;2023-04-29T12:03:49;5.40;;;4.85;;
69256;SDS011;56376;53.356;-1.748;2023-04-29T12:06:15;5.15;;;4.70;;
69256;SDS011;56376;53.356;-1.748;2023-04-29T12:08:40;6.20;;;5.57;;
69256;SDS011;56376;53.356;-1.748;2023-04-29T12:11:06;4.72;;;4.32;;
69256;SDS011;56376;53.356;-1.748;2023-04-29T12:13:32;6.45;;;5.85;;
69256;SDS011;56376;53.356;-1.748;2023-04-29T12:16:02;10.02;;;9.13;;
69256;SDS011;56376;53.356;-1.748;2023-04-29T12:18:28;7.30;;;6.60;;
69256;SDS011;56376;53.356;-1.748;2023-04-29T12:20:54;7.18;;;6.47;;
69256;SDS011;56376;53.356;-1.748;2023-04-29T12:23:21;6.28;;;5.68;;
69256;SDS011;56376;53.356;-1.748;2023-04-29T12:25:55;9.32;;;8.43;;
69256;SDS011;56376;53.356;-1.748;2023-04-29T12:28:22;9.80;;;8.90;;
69256;SDS011;56376;53.356;-1.748;2023-04-29T12:30:48;8.35;;;7.65;;
69256;SDS011;56376;53.356;-1.748;2023-04-29T12:33:25;7.50;;;6.80;;
69256;SDS011;56376;53.356;-1.748;2023-04-29T12:35:53;7.35;;;6.65;;
69256;SDS011;56376;53.356;-1.748;2023-04-29T12:38:24;8.40;;;7.65;;
69256;SDS011;56376;53.356;-1.748;2023-04-29T12:40:54;9.50;;;8.70;;
69256;SDS011;56376;53.356;-1.748;2023-04-29T12:43:26;7.88;;;7.18;;
69256;SDS011;56376;53.356;-1.748;2023-04-29T12:45:53;7.38;;;6.68;;
69256;SDS011;56376;53.356;-1.748;2023-04-29T12:48:28;6.07;;;5.57;;
69256;SDS011;56376;53.356;-1.748;2023-04-29T12:50:56;6.05;;;5.45;;
69256;SDS011;56376;53.356;-1.748;2023-04-29T12:53:24;7.10;;;6.40;;
69256;SDS011;56376;53.356;-1.748;2023-04-29T12:55:50;6.47;;;5.88;;
69256;SDS011;56376;53.356;-1.748;2023-04-29T12:58:16;6.65;;;6.15;;
69256;SDS011;56376;53.356;-1.748;2023-04-29T13:00:41;7.05;;;6.40;;
69256;SDS011;56376;53.356;-1.748;2023-04-29T13:03:07;5.00;;;4.60;;
69256;SDS011;56376;53.356;-1.748;2023-04-29T13:05:32;6.28;;;5.68;;
69256;SDS011;56376;53.356;-1.748;2023-04-29T13:07:58;5.75;;;5.32;;
69256;SDS011;56376;53.356;-1.748;2023-04-29T13:10:23;5.68;;;5.18;;
69256;SDS011;56376;53.356;-1.748;2023-04-29T13:12:48;4.55;;;4.15;;
69256;SDS011;56376;53.356;-1.748;2023-04-29T13:15:14;5.50;;;4.85;;
69256;SDS011;56376;53.356;-1.748;2023-04-29T13:17:39;7.38;;;5.00;;
69256;SDS011;56376;53.356;-1.748;2023-04-29T13:20:05;4.57;;;4.18;;
69256;SDS011;56376;53.356;-1.748;2023-04-29T13:22:35;4.30;;;3.90;;
69256;SDS011;56376;53.356;-1.748;2023-04-29T13:25:01;5.32;;;4.00;;
69256;SDS011;56376;53.356;-1.748;2023-04-29T13:27:27;4.13;;;3.60;;
69256;SDS011;56376;53.356;-1.748;2023-04-29T13:29:52;3.40;;;3.10;;
69256;SDS011;56376;53.356;-1.748;2023-04-29T13:32:18;3.97;;;3.30;;
69256;SDS011;56376;53.356;-1.748;2023-04-29T13:34:47;3.80;;;2.65;;
69256;SDS011;56376;53.356;-1.748;2023-04-29T13:37:12;3.40;;;3.10;;
69256;SDS011;56376;53.356;-1.748;2023-04-29T13:39:38;3.03;;;2.70;;
69256;SDS011;56376;53.356;-1.748;2023-04-29T13:42:03;3.40;;;2.72;;
69256;SDS011;56376;53.356;-1.748;2023-04-29T13:44:29;3.70;;;3.33;;
69256;SDS011;56376;53.356;-1.748;2023-04-29T13:46:55;3.03;;;2.67;;
69256;SDS011;56376;53.356;-1.748;2023-04-29T13:49:20;3.08;;;2.78;;
69256;SDS011;56376;53.356;-1.748;2023-04-29T13:51:46;2.40;;;2.20;;
69256;SDS011;56376;53.356;-1.748;2023-04-29T13:54:11;2.13;;;1.90;;
69256;SDS011;56376;53.356;-1.748;2023-04-29T13:56:37;4.78;;;3.08;;
69256;SDS011;56376;53.356;-1.748;2023-04-29T13:59:02;3.28;;;2.22;;
69256;SDS011;56376;53.356;-1.748;2023-04-29T14:01:28;2.25;;;2.05;;
69256;SDS011;56376;53.356;-1.748;2023-04-29T14:03:53;2.53;;;2.17;;
69256;SDS011;56376;53.356;-1.748;2023-04-29T14:06:18;2.10;;;1.90;;
69256;SDS011;56376;53.356;-1.748;2023-04-29T14:08:44;1.95;;;1.67;;
69256;SDS011;56376;53.356;-1.748;2023-04-29T14:11:10;2.70;;;1.83;;
69256;SDS011;56376;53.356;-1.748;2023-04-29T14:13:35;1.65;;;1.55;;
69256;SDS011;56376;53.356;-1.748;2023-04-29T14:16:00;1.95;;;1.83;;
69256;SDS011;56376;53.356;-1.748;2023-04-29T14:18:28;2.45;;;1.95;;
69256;SDS011;56376;53.356;-1.748;2023-04-29T14:20:54;2.17;;;1.98;;
69256;SDS011;56376;53.356;-1.748;2023-04-29T14:23:21;2.20;;;1.95;;
69256;SDS011;56376;53.356;-1.748;2023-04-29T14:25:47;2.30;;;2.10;;
69256;SDS011;56376;53.356;-1.748;2023-04-29T14:28:12;2.20;;;2.00;;
69256;SDS011;56376;53.356;-1.748;2023-04-29T14:30:37;2.55;;;2.35;;
69256;SDS011;56376;53.356;-1.748;2023-04-29T14:33:03;3.15;;;2.63;;
69256;SDS011;56376;53.356;-1.748;2023-04-29T14:35:29;7.60;;;6.25;;
69256;SDS011;56376;53.356;-1.748;2023-04-29T14:37:55;6.75;;;5.38;;
69256;SDS011;56376;53.356;-1.748;2023-04-29T14:40:20;21.08;;;14.20;;
69256;SDS011;56376;53.356;-1.748;2023-04-29T14:42:46;23.38;;;14.98;;
69256;SDS011;56376;53.356;-1.748;2023-04-29T14:45:11;15.88;;;10.73;;
69256;SDS011;56376;53.356;-1.748;2023-04-29T14:47:37;19.10;;;11.20;;
69256;SDS011;56376;53.356;-1.748;2023-04-29T14:50:02;38.08;;;22.65;;
69256;SDS011;56376;53.356;-1.748;2023-04-29T14:52:28;20.10;;;13.60;;